Cefn Sidan, United Kingdom

1:46 PM BST on July 26, 2016 (GMT +0100)
Llangennith - Sea View over Hill End | | Change Station

Elev 131 ft 51.60 °N, 4.27 °W | Updated 37 seconds ago

Mostly Cloudy
Mostly Cloudy
77.2 °F
Feels Like 78 °F
N
8.1
Wind Variable Wind from SW
Gusts 9.8 mph

Today
High -- | Low -- °F
--% Chance of Precip.
Yesterday
High -- | Low -- °F
Precip. -- in
Pressure 30.18 in
Visibility 6.2 miles
Clouds Few 1700 ft
Mostly Cloudy 4900 ft
Heat Index 78 °F
Dew Point 76 °F
Humidity 95%
Rainfall 0.00 in
Snow Depth Not available.
5:31 AM 9:15 PM
Waning Gibbous, 55% visible
METAR EGFF 261220Z AUTO 27010KT 9999 FEW017 BKN049 18/14 Q1022
Pressure 30.18 in
Visibility 6.2 miles
Clouds Few 1700 ft
Mostly Cloudy 4900 ft
Heat Index 78 °F
Dew Point 76 °F
Humidity 95%
Rainfall 0.00 in
Snow Depth Not available.
5:31 AM 9:15 PM
Waning Gibbous, 55% visible
METAR EGFF 261220Z AUTO 27010KT 9999 FEW017 BKN049 18/14 Q1022

10-Day Weather Forecast

×

Almanac

Astronomy

Jul. 26, 2016 Rise Set
Actual Time
Civil Twilight
Nautical Twilight
Astronomical Twilight
Moon
Length of Visible Light
Length of Day
Tomorrow will be .
, % of the Moon is Illuminated

Today's Extremes

Country Highs Country Lows

Community

WunderPhotos

Upload Photos

1,927,581 photos uploaded!

WunderBlog® & News

Nearby

Air Quality

  Air Quality AQ Index Pollutant
Not available.

Snow Depth

Station Depth Elevation

Earthquake Activity

City Distance Mag. Time & Date
Minimum magnitude displayed is 2.5.

Coastal Water Temperatures

Place Temperature

Stations

Nearby Weather Stations

Station Location Temp. Windchill Dew Point Humidity Wind Precip. Elev Updated Type